Time;durP1;ratioP1;P1;durP2;ratioP2;P2;SDS_P1;SDS_P2;PMS_P1;PMS_P2;Temp;Humidity;BMP_temperature;BMP_pressure;BME280_temperature;BME280_humidity;BME280_pressure;Samples;Min_cycle;Max_cycle;Signal;HPM_P1;HPM_P2
2021/12/20 00:00:38;;;;;;;31.42;8.23;;;;;;;5.81;100.00;102465.25;4960729;28;20117;-78
2021/12/20 00:03:04;;;;;;;22.35;7.50;;;;;;;5.83;100.00;102458.81;4976539;28;20078;-78
2021/12/20 00:05:30;;;;;;;23.63;8.02;;;;;;;5.79;100.00;102454.44;4942477;28;20035;-78
2021/12/20 00:07:56;;;;;;;25.02;7.18;;;;;;;5.78;100.00;102460.78;4943633;28;20035;-78
2021/12/20 00:10:22;;;;;;;27.55;7.25;;;;;;;5.80;100.00;102452.59;4958799;28;20039;-78
2021/12/20 00:12:48;;;;;;;25.20;8.25;;;;;;;5.69;100.00;102440.25;4928345;28;20047;-78
2021/12/20 00:15:14;;;;;;;30.85;8.93;;;;;;;5.76;100.00;102449.09;4945183;29;20055;-77
2021/12/20 00:17:40;;;;;;;17.83;6.93;;;;;;;5.74;100.00;102452.78;4960214;28;20038;-78
2021/12/20 00:20:07;;;;;;;26.13;7.28;;;;;;;5.80;100.00;102461.63;4960906;28;20039;-78
2021/12/20 00:22:32;;;;;;;21.70;6.50;;;;;;;5.82;100.00;102467.91;4969446;28;20036;-78
2021/12/20 00:24:58;;;;;;;22.38;7.03;;;;;;;5.75;100.00;102446.41;4945717;29;20037;-78
2021/12/20 00:27:24;;;;;;;22.77;7.22;;;;;;;5.64;100.00;102438.59;4962843;28;20035;-78
2021/12/20 00:29:52;;;;;;;19.63;6.78;;;;;;;5.83;100.00;102463.34;4966308;28;20367;-78
2021/12/20 00:32:19;;;;;;;28.00;7.22;;;;;;;5.70;100.00;102433.84;4945494;29;20031;-78
2021/12/20 00:34:45;;;;;;;19.35;7.32;;;;;;;5.69;100.00;102429.38;4976669;28;20027;-78
2021/12/20 00:42:43;;;;;;;26.13;6.00;;;;;;;5.64;100.00;102439.53;4960076;29;20050;-78
2021/12/20 00:45:10;;;;;;;19.75;5.72;;;;;;;5.75;100.00;102452.72;4937203;29;20377;-78
2021/12/20 00:47:36;;;;;;;26.10;6.30;;;;;;;5.62;100.00;102424.19;4942153;28;20054;-78
2021/12/20 00:50:04;;;;;;;18.38;5.32;;;;;;;5.74;100.00;102441.91;4961214;28;20061;-78
2021/12/20 00:52:29;;;;;;;17.05;6.25;;;;;;;5.70;100.00;102450.16;4962194;28;20039;-77
2021/12/20 00:54:55;;;;;;;28.85;6.78;;;;;;;5.70;100.00;102441.13;4943556;29;20483;-78
2021/12/20 00:57:20;;;;;;;20.30;5.50;;;;;;;5.73;100.00;102453.75;4963595;28;20031;-78
2021/12/20 00:59:46;;;;;;;17.42;4.82;;;;;;;5.74;100.00;102456.41;4957801;28;20037;-77
2021/12/20 01:02:11;;;;;;;17.02;4.68;;;;;;;5.70;100.00;102449.28;4957598;28;20034;-78
2021/12/20 01:04:37;;;;;;;20.10;5.00;;;;;;;5.60;100.00;102442.38;4959251;29;20145;-78
2021/12/20 01:07:03;;;;;;;34.17;4.80;;;;;;;5.71;100.00;102456.50;4964680;28;20411;-78
2021/12/20 01:09:28;;;;;;;25.67;4.10;;;;;;;5.69;100.00;102447.53;4971922;28;20035;-78
2021/12/20 01:12:01;;;;;;;15.98;4.43;;;;;;;5.72;100.00;102447.41;4964008;28;20027;-78
2021/12/20 01:14:27;;;;;;;25.13;4.50;;;;;;;5.71;100.00;102449.25;4963878;28;20450;-78
2021/12/20 01:16:56;;;;;;;29.38;4.10;;;;;;;5.68;100.00;102451.16;4957739;28;20460;-78
2021/12/20 01:19:22;;;;;;;21.40;4.30;;;;;;;5.69;100.00;102451.13;4959268;28;20122;-78
2021/12/20 01:21:48;;;;;;;14.77;3.97;;;;;;;5.63;100.00;102443.16;4956489;28;20035;-78
2021/12/20 01:24:13;;;;;;;19.30;4.63;;;;;;;5.61;100.00;102449.59;4944862;28;20106;-78
2021/12/20 01:26:39;;;;;;;25.80;4.05;;;;;;;5.65;100.00;102446.72;4959607;29;20042;-78
2021/12/20 01:29:04;;;;;;;26.70;3.83;;;;;;;5.59;100.00;102438.78;4976028;28;20027;-78
2021/12/20 01:31:30;;;;;;;22.00;3.20;;;;;;;5.55;100.00;102433.50;4959511;28;20078;-78
2021/12/20 01:33:55;;;;;;;17.33;3.45;;;;;;;5.65;100.00;102454.88;4958774;28;20039;-78
2021/12/20 01:36:21;;;;;;;18.98;3.10;;;;;;;5.55;100.00;102442.53;4958712;28;20066;-78
2021/12/20 01:38:46;;;;;;;22.17;3.67;;;;;;;5.61;100.00;102450.50;4958544;28;20479;-78
2021/12/20 01:41:12;;;;;;;18.27;3.35;;;;;;;5.61;100.00;102444.16;4974212;28;20035;-78
2021/12/20 01:43:38;;;;;;;14.43;3.17;;;;;;;5.60;100.00;102445.97;4959417;28;20039;-78
2021/12/20 01:46:04;;;;;;;14.50;3.17;;;;;;;5.55;100.00;102438.94;4958701;28;20035;-77
2021/12/20 01:48:31;;;;;;;23.40;3.13;;;;;;;5.57;100.00;102446.06;4961765;28;20039;-78
2021/12/20 01:53:33;;;;;;;20.25;2.83;;;;;;;5.53;100.00;102438.97;4955246;28;20028;-78
2021/12/20 01:55:59;;;;;;;16.77;2.92;;;;;;;5.55;100.00;102442.53;4973244;28;20126;-78
2021/12/20 01:58:27;;;;;;;19.55;2.92;;;;;;;5.51;100.00;102430.88;4969455;28;20083;-78
2021/12/20 02:03:42;;;;;;;23.42;4.25;;;;;;;5.45;100.00;102424.75;4965430;28;20041;-77
2021/12/20 02:06:17;;;;;;;15.48;2.75;;;;;;;5.46;100.00;102422.00;4979511;28;20054;-78
2021/12/20 02:08:43;;;;;;;27.80;3.28;;;;;;;5.48;100.00;102422.81;4960562;28;20091;-77
2021/12/20 02:11:11;;;;;;;26.65;3.92;;;;;;;5.56;100.00;102428.00;4961082;28;20106;-78
2021/12/20 02:13:39;;;;;;;23.40;3.85;;;;;;;5.38;100.00;102393.28;4965572;28;20137;-78
2021/12/20 02:16:06;;;;;;;22.05;3.10;;;;;;;5.50;100.00;102431.81;4962002;28;20039;-78
2021/12/20 02:18:32;;;;;;;34.45;3.58;;;;;;;5.45;100.00;102432.91;4960979;28;20097;-78
2021/12/20 02:20:59;;;;;;;37.92;3.50;;;;;;;5.46;100.00;102429.22;4972826;28;20035;-78
2021/12/20 02:23:25;;;;;;;20.15;2.17;;;;;;;5.43;100.00;102430.25;4963088;28;20042;-78
2021/12/20 02:25:50;;;;;;;31.73;3.72;;;;;;;5.45;100.00;102435.63;4984705;28;20087;-78
2021/12/20 02:28:19;;;;;;;24.95;3.80;;;;;;;5.44;100.00;102431.13;4964120;28;20035;-78
2021/12/20 02:38:46;;;;;;;20.50;2.75;;;;;;;5.45;100.00;102422.03;4958284;28;20082;-78
2021/12/20 02:41:22;;;;;;;36.67;3.20;;;;;;;5.43;100.00;102423.91;4962053;28;20035;-78
2021/12/20 02:43:58;;;;;;;26.15;2.05;;;;;;;5.43;100.00;102418.50;4960917;29;20086;-78
2021/12/20 02:49:12;;;;;;;21.05;2.97;;;;;;;5.39;100.00;102411.38;4961380;28;20039;-78
2021/12/20 02:51:38;;;;;;;18.05;3.05;;;;;;;5.38;100.00;102415.91;4978970;28;20034;-78
2021/12/20 02:54:06;;;;;;;28.13;2.88;;;;;;;5.37;100.00;102421.41;4961260;29;20067;-78
2021/12/20 02:56:32;;;;;;;23.23;3.42;;;;;;;5.48;100.00;102424.66;4960864;28;20091;-77
2021/12/20 02:58:58;;;;;;;17.35;2.28;;;;;;;5.45;100.00;102425.63;4952224;28;20035;-78
2021/12/20 03:01:24;;;;;;;24.55;2.75;;;;;;;5.34;100.00;102407.00;4961216;28;20027;-77
2021/12/20 03:03:53;;;;;;;26.08;2.33;;;;;;;5.30;100.00;102426.13;4959620;28;20039;-78
2021/12/20 03:06:26;;;;;;;22.13;2.90;;;;;;;5.30;100.00;102412.56;4967979;28;20027;-77
2021/12/20 03:08:55;;;;;;;31.27;3.08;;;;;;;5.25;100.00;102422.69;4941030;28;20038;-77
2021/12/20 03:11:24;;;;;;;24.02;2.78;;;;;;;5.32;100.00;102433.28;4972026;28;20515;-78
2021/12/20 03:13:54;;;;;;;24.92;3.22;;;;;;;5.27;100.00;102429.81;4943422;28;20059;-77
2021/12/20 03:16:20;;;;;;;26.73;2.42;;;;;;;5.30;100.00;102437.88;4958236;28;20506;-77
2021/12/20 03:18:46;;;;;;;19.75;2.33;;;;;;;5.29;100.00;102429.78;4959145;28;20038;-78
2021/12/20 03:21:12;;;;;;;31.58;2.47;;;;;;;5.36;100.00;102427.75;4957703;28;20042;-77
2021/12/20 03:23:37;;;;;;;26.88;2.70;;;;;;;5.33;100.00;102418.78;4958709;28;20035;-77
2021/12/20 03:26:03;;;;;;;36.55;3.28;;;;;;;5.34;100.00;102415.13;4957814;28;20081;-77
2021/12/20 03:28:28;;;;;;;25.90;2.55;;;;;;;5.27;100.00;102415.38;4970658;28;20063;-77
2021/12/20 03:30:54;;;;;;;23.30;2.92;;;;;;;5.36;100.00;102425.91;4958211;28;20042;-77
2021/12/20 03:33:20;;;;;;;39.38;4.70;;;;;;;5.34;100.00;102430.50;4971379;28;20031;-77
2021/12/20 03:35:45;;;;;;;29.00;2.95;;;;;;;5.28;100.00;102420.75;4955337;28;20037;-77
2021/12/20 03:38:11;;;;;;;28.00;2.47;;;;;;;5.36;100.00;102433.19;4955017;28;20522;-77
2021/12/20 03:40:37;;;;;;;19.60;1.90;;;;;;;5.37;100.00;102426.81;4943267;29;20031;-77
2021/12/20 03:43:03;;;;;;;41.90;3.40;;;;;;;5.42;100.00;102433.88;4939398;28;20035;-77
2021/12/20 03:45:29;;;;;;;20.95;2.05;;;;;;;5.44;100.00;102422.97;4957008;28;20387;-77
2021/12/20 03:47:55;;;;;;;25.33;3.10;;;;;;;5.44;100.00;102434.72;4972501;28;20048;-77
2021/12/20 03:50:21;;;;;;;21.85;2.22;;;;;;;5.40;100.00;102440.31;4960574;28;20612;-77
2021/12/20 03:52:46;;;;;;;26.25;2.38;;;;;;;5.26;100.00;102427.16;4972501;28;20031;-77
2021/12/20 03:55:14;;;;;;;29.73;2.17;;;;;;;5.24;100.00;102427.19;4957901;28;20114;-77
2021/12/20 03:57:40;;;;;;;22.20;2.58;;;;;;;5.23;100.00;102421.81;4968710;28;20024;-76
2021/12/20 04:00:09;;;;;;;26.40;3.65;;;;;;;5.24;100.00;102427.19;4939396;28;20030;-77
2021/12/20 04:02:43;;;;;;;26.20;2.22;;;;;;;5.16;100.00;102418.41;4957493;28;20034;-77
2021/12/20 04:05:09;;;;;;;26.45;2.40;;;;;;;5.14;100.00;102420.28;4957500;29;20071;-77
2021/12/20 04:07:35;;;;;;;29.17;3.47;;;;;;;5.12;100.00;102416.75;4955739;28;20779;-77
2021/12/20 04:10:00;;;;;;;31.30;3.15;;;;;;;5.14;100.00;102415.75;4957108;28;20039;-77
2021/12/20 04:12:32;;;;;;;29.90;2.80;;;;;;;5.14;100.00;102414.84;4957023;28;20039;-77
2021/12/20 04:14:57;;;;;;;29.85;2.88;;;;;;;5.08;100.00;102420.47;4971365;28;20494;-77
2021/12/20 04:17:25;;;;;;;25.23;2.67;;;;;;;5.21;100.00;102430.00;4956128;28;20039;-77
2021/12/20 04:19:50;;;;;;;27.10;1.77;;;;;;;5.27;100.00;102435.25;4955009;28;20122;-77
2021/12/20 04:22:18;;;;;;;23.67;2.22;;;;;;;5.23;100.00;102420.00;4956634;28;20422;-77
2021/12/20 04:24:44;;;;;;;23.10;3.00;;;;;;;5.21;100.00;102426.41;4955431;28;20043;-77
2021/12/20 04:27:10;;;;;;;32.03;3.33;;;;;;;5.17;100.00;102428.34;4957229;28;20456;-77
2021/12/20 04:29:35;;;;;;;32.70;3.00;;;;;;;5.19;100.00;102429.19;4959280;28;20380;-77
2021/12/20 04:32:01;;;;;;;42.22;3.47;;;;;;;5.20;100.00;102432.78;4957664;28;20042;-78
2021/12/20 04:34:27;;;;;;;32.28;3.85;;;;;;;5.18;100.00;102432.81;4956126;28;20031;-78
2021/12/20 04:36:53;;;;;;;39.22;3.53;;;;;;;5.18;100.00;102423.78;4953608;29;20038;-77
2021/12/20 04:39:22;;;;;;;30.35;2.70;;;;;;;5.15;100.00;102431.09;4956182;28;20027;-78
2021/12/20 04:41:47;;;;;;;27.52;2.45;;;;;;;5.18;100.00;102435.53;4962246;28;20039;-78
2021/12/20 04:44:13;;;;;;;31.30;3.50;;;;;;;5.25;100.00;102433.53;4955158;29;20058;-77
2021/12/20 04:46:38;;;;;;;31.42;2.60;;;;;;;5.19;100.00;102431.00;4957717;28;20467;-77
2021/12/20 04:49:04;;;;;;;18.00;4.20;;;;;;;5.09;100.00;102434.00;4957997;29;20031;-78
2021/12/20 04:51:30;;;;;;;30.45;2.45;;;;;;;5.09;100.00;102431.28;4954158;28;20059;-77
2021/12/20 04:53:55;;;;;;;36.38;3.20;;;;;;;5.10;100.00;102429.44;4972056;28;20126;-78
2021/12/20 04:56:21;;;;;;;30.80;2.83;;;;;;;5.13;100.00;102437.50;4940941;29;20038;-78
2021/12/20 04:58:46;;;;;;;38.00;3.63;;;;;;;5.06;100.00;102431.38;4960133;28;20031;-78
2021/12/20 05:01:12;;;;;;;30.30;3.42;;;;;;;5.07;100.00;102433.16;4957249;29;20039;-78
2021/12/20 05:03:37;;;;;;;34.58;3.20;;;;;;;5.02;100.00;102428.78;4955488;28;20042;-77
2021/12/20 05:06:03;;;;;;;39.67;2.92;;;;;;;5.11;100.00;102437.53;4974204;28;20111;-77
2021/12/20 05:08:34;;;;;;;25.50;2.78;;;;;;;5.14;100.00;102431.16;4958539;28;20040;-78
2021/12/20 05:11:01;;;;;;;28.27;2.80;;;;;;;5.09;100.00;102423.13;4952176;28;20035;-79
2021/12/20 05:13:26;;;;;;;32.88;3.10;;;;;;;5.07;100.00;102410.56;4940062;29;20035;-77
2021/12/20 05:15:52;;;;;;;31.95;3.10;;;;;;;5.12;100.00;102427.59;4971257;28;20078;-77
2021/12/20 05:18:17;;;;;;;31.58;2.38;;;;;;;5.14;100.00;102439.28;4956240;28;20042;-77
2021/12/20 05:20:43;;;;;;;33.35;3.95;;;;;;;5.17;100.00;102446.47;4956536;28;20031;-77
2021/12/20 05:23:08;;;;;;;36.30;3.80;;;;;;;5.09;100.00;102425.84;4954207;28;20166;-77
2021/12/20 05:25:36;;;;;;;36.10;2.90;;;;;;;5.09;100.00;102436.72;4972437;28;20082;-78
2021/12/20 05:28:02;;;;;;;25.08;3.60;;;;;;;5.10;100.00;102430.38;4971568;28;20035;-78
2021/12/20 05:30:27;;;;;;;28.00;2.45;;;;;;;5.11;100.00;102428.53;4973143;28;20035;-77
2021/12/20 05:32:53;;;;;;;25.27;2.83;;;;;;;5.10;100.00;102433.06;4974018;28;20074;-77
2021/12/20 05:35:21;;;;;;;36.15;3.47;;;;;;;5.13;100.00;102426.66;4956412;28;20041;-78
2021/12/20 05:37:47;;;;;;;30.63;3.33;;;;;;;5.11;100.00;102436.66;4960357;28;20058;-77
2021/12/20 05:40:14;;;;;;;35.03;3.35;;;;;;;5.11;100.00;102433.94;4956487;28;20039;-77
2021/12/20 05:42:40;;;;;;;31.55;3.10;;;;;;;5.10;100.00;102433.06;4959914;28;20129;-77
2021/12/20 05:45:06;;;;;;;20.95;3.03;;;;;;;5.12;100.00;102427.59;4944181;28;20027;-77
2021/12/20 05:47:32;;;;;;;25.83;2.78;;;;;;;5.07;100.00;102430.44;4964877;28;20466;-77
2021/12/20 05:49:57;;;;;;;47.75;3.53;;;;;;;5.08;100.00;102434.03;4956963;28;20053;-77
2021/12/20 05:52:23;;;;;;;30.70;3.67;;;;;;;5.07;100.00;102432.28;4961769;28;20027;-78
2021/12/20 05:54:48;;;;;;;28.35;2.50;;;;;;;5.08;100.00;102434.03;4979236;28;20039;-78
2021/12/20 05:57:14;;;;;;;30.25;2.97;;;;;;;5.10;100.00;102437.59;4961556;28;20050;-77
2021/12/20 05:59:39;;;;;;;25.60;2.33;;;;;;;5.10;100.00;102440.31;4984824;28;20050;-78
2021/12/20 06:02:05;;;;;;;27.80;2.78;;;;;;;5.08;100.00;102444.91;4962171;28;20046;-78
2021/12/20 06:04:31;;;;;;;29.50;2.65;;;;;;;5.03;100.00;102442.31;4964033;28;20423;-78
2021/12/20 06:06:56;;;;;;;26.40;3.05;;;;;;;4.98;100.00;102447.00;4960904;29;20035;-78
2021/12/20 06:09:22;;;;;;;40.10;4.93;;;;;;;4.96;100.00;102441.63;4958257;28;20454;-78
2021/12/20 06:11:48;;;;;;;23.50;3.67;;;;;;;4.95;100.00;102445.28;4961363;28;20043;-78
2021/12/20 06:14:13;;;;;;;28.83;3.22;;;;;;;4.92;100.00;102450.81;4977115;28;20036;-78
2021/12/20 06:16:39;;;;;;;23.55;3.20;;;;;;;4.94;100.00;102446.22;4960463;28;20069;-78
2021/12/20 06:19:04;;;;;;;37.90;3.60;;;;;;;4.98;100.00;102449.72;4959910;28;20027;-79
2021/12/20 06:21:30;;;;;;;29.85;3.38;;;;;;;4.99;100.00;102447.91;4962246;28;20412;-80
2021/12/20 06:23:55;;;;;;;41.78;3.90;;;;;;;4.95;100.00;102455.22;4974533;28;20042;-79
2021/12/20 06:26:23;;;;;;;43.35;2.83;;;;;;;4.93;100.00;102454.41;4960468;28;20062;-79
2021/12/20 06:28:51;;;;;;;39.60;4.03;;;;;;;4.91;100.00;102448.13;4959366;29;20035;-78
2021/12/20 06:31:17;;;;;;;38.40;2.70;;;;;;;4.86;100.00;102441.97;4944568;29;20039;-78
2021/12/20 06:33:43;;;;;;;35.83;3.15;;;;;;;4.81;100.00;102441.22;4966331;28;20046;-78
2021/12/20 06:36:10;;;;;;;31.77;3.03;;;;;;;4.86;100.00;102444.66;4973126;28;20047;-79
2021/12/20 06:38:42;;;;;;;34.90;3.45;;;;;;;4.78;100.00;102447.59;4958583;29;20411;-79
2021/12/20 06:41:08;;;;;;;30.38;2.83;;;;;;;4.79;100.00;102452.97;4959989;29;20495;-78
2021/12/20 06:43:33;;;;;;;24.95;2.88;;;;;;;4.74;100.00;102456.78;4974430;28;20110;-78
2021/12/20 06:45:59;;;;;;;30.05;2.70;;;;;;;4.83;100.00;102463.75;4972003;28;20031;-78
2021/12/20 06:48:24;;;;;;;34.55;3.45;;;;;;;4.87;100.00;102468.13;4960923;29;20110;-79
2021/12/20 06:50:49;;;;;;;32.13;3.28;;;;;;;4.91;100.00;102470.72;4961865;28;20039;-78
2021/12/20 06:53:15;;;;;;;43.28;3.47;;;;;;;4.92;100.00;102466.19;4977201;28;20431;-78
2021/12/20 06:55:40;;;;;;;33.03;3.78;;;;;;;4.97;100.00;102477.81;4958723;29;20093;-78
2021/12/20 06:58:06;;;;;;;30.55;4.03;;;;;;;4.94;100.00;102475.19;4934708;29;20660;-78
2021/12/20 07:00:32;;;;;;;33.63;3.15;;;;;;;4.91;100.00;102469.84;4968137;28;20062;-78
2021/12/20 07:02:57;;;;;;;24.67;2.50;;;;;;;4.87;100.00;102462.72;4958071;28;20035;-77
2021/12/20 07:05:23;;;;;;;27.73;2.95;;;;;;;4.90;100.00;102470.78;4958758;28;20061;-78
2021/12/20 07:07:49;;;;;;;29.90;4.28;;;;;;;4.89;100.00;102477.16;4955317;29;20031;-78
2021/12/20 07:10:14;;;;;;;32.42;2.83;;;;;;;4.90;100.00;102477.09;4957542;28;20099;-78
2021/12/20 07:12:40;;;;;;;23.23;2.50;;;;;;;4.97;100.00;102472.38;4955488;29;20023;-78
2021/12/20 07:15:10;;;;;;;20.33;2.35;;;;;;;4.96;100.00;102476.91;4959003;28;20538;-78
2021/12/20 07:17:36;;;;;;;25.58;3.35;;;;;;;5.01;100.00;102478.59;4957791;28;20051;-78
2021/12/20 07:20:02;;;;;;;35.20;3.17;;;;;;;4.92;100.00;102477.03;4956070;29;20065;-77
2021/12/20 07:22:28;;;;;;;32.67;2.88;;;;;;;4.93;100.00;102485.13;4959221;28;20063;-78
2021/12/20 07:24:53;;;;;;;21.95;3.47;;;;;;;4.92;100.00;102488.81;4959057;28;20035;-77
2021/12/20 07:27:19;;;;;;;32.50;3.58;;;;;;;4.93;100.00;102482.41;4959479;28;20063;-78
2021/12/20 07:29:45;;;;;;;33.90;2.67;;;;;;;4.94;100.00;102486.03;4961433;29;20035;-78
2021/12/20 07:32:13;;;;;;;17.20;1.95;;;;;;;4.89;100.00;102480.75;4958692;28;20035;-78
2021/12/20 07:34:39;;;;;;;29.73;2.70;;;;;;;4.88;100.00;102478.94;4957292;29;20023;-78
2021/12/20 07:37:06;;;;;;;33.08;3.05;;;;;;;4.93;100.00;102485.13;4958833;28;20066;-78
2021/12/20 07:39:32;;;;;;;27.58;2.97;;;;;;;4.89;100.00;102486.16;4956959;29;20051;-78
2021/12/20 07:41:59;;;;;;;32.88;3.22;;;;;;;4.92;100.00;102488.81;4941198;29;20051;-78
2021/12/20 07:44:25;;;;;;;32.05;2.67;;;;;;;4.95;100.00;102488.72;4974316;28;20062;-78
2021/12/20 07:46:51;;;;;;;35.50;3.40;;;;;;;4.99;100.00;102492.22;4965575;28;20042;-78
2021/12/20 07:49:17;;;;;;;28.73;3.25;;;;;;;4.94;100.00;102486.94;4947419;28;20039;-78
2021/12/20 07:51:42;;;;;;;27.05;3.40;;;;;;;4.92;100.00;102487.88;4958107;28;20451;-78
2021/12/20 07:54:08;;;;;;;27.98;2.45;;;;;;;4.95;100.00;102488.72;4948206;29;20115;-78
2021/12/20 07:56:33;;;;;;;29.15;3.42;;;;;;;4.91;100.00;102488.84;4955013;28;20387;-78
2021/12/20 07:58:59;;;;;;;30.25;3.17;;;;;;;4.93;100.00;102485.13;4955882;28;20038;-77
2021/12/20 08:01:26;;;;;;;24.65;2.90;;;;;;;4.89;100.00;102494.31;4959849;28;20174;-78
2021/12/20 08:03:51;;;;;;;27.92;2.70;;;;;;;4.89;100.00;102480.75;4974476;28;20526;-78
2021/12/20 08:06:17;;;;;;;25.48;2.58;;;;;;;4.90;100.00;102492.47;4955977;28;20075;-78
2021/12/20 08:08:44;;;;;;;19.77;3.17;;;;;;;4.95;100.00;102501.38;4956137;29;20062;-79
2021/12/20 08:11:10;;;;;;;27.20;2.95;;;;;;;4.95;100.00;102494.16;4946662;28;20562;-78
2021/12/20 08:13:44;;;;;;;30.58;3.25;;;;;;;4.89;100.00;102505.16;4951532;28;20035;-78
2021/12/20 08:16:13;;;;;;;25.17;3.40;;;;;;;4.89;100.00;102510.59;4936600;29;20588;-77
2021/12/20 08:18:40;;;;;;;29.20;4.20;;;;;;;4.85;100.00;102503.47;4946811;28;20035;-78
2021/12/20 08:21:06;;;;;;;27.95;3.17;;;;;;;4.86;100.00;102502.53;4967798;28;20054;-78
2021/12/20 08:23:32;;;;;;;27.08;2.03;;;;;;;4.85;100.00;102491.72;4954953;28;20027;-78
2021/12/20 08:26:04;;;;;;;34.38;3.47;;;;;;;4.90;100.00;102493.41;5072427;28;20394;-78
2021/12/20 08:28:30;;;;;;;24.02;3.22;;;;;;;4.95;100.00;102506.81;5060462;28;20049;-77
2021/12/20 08:30:56;;;;;;;21.77;3.38;;;;;;;4.89;100.00;102502.47;5011577;28;20448;-78
2021/12/20 08:33:21;;;;;;;24.08;2.80;;;;;;;4.90;100.00;102492.47;5009480;28;20046;-77
2021/12/20 08:35:49;;;;;;;21.92;2.33;;;;;;;4.91;100.00;102497.88;5009690;28;20042;-77
2021/12/20 08:38:19;;;;;;;20.58;3.33;;;;;;;5.01;100.00;102506.63;5012348;28;20389;-78
2021/12/20 08:40:47;;;;;;;38.78;3.50;;;;;;;4.99;100.00;102510.34;5005670;28;20030;-77
2021/12/20 08:43:14;;;;;;;28.23;3.08;;;;;;;5.02;100.00;102513.84;5007764;28;20513;-77
2021/12/20 08:45:40;;;;;;;27.38;3.38;;;;;;;5.06;100.00;102517.38;5008851;28;20080;-79
2021/12/20 08:48:06;;;;;;;34.22;2.83;;;;;;;5.08;100.00;102510.06;4984581;28;20042;-79
2021/12/20 08:50:32;;;;;;;32.35;2.67;;;;;;;5.06;100.00;102511.94;4993108;28;20050;-77
2021/12/20 08:52:57;;;;;;;34.03;2.75;;;;;;;5.11;100.00;102507.25;5000904;28;20029;-77
2021/12/20 08:55:24;;;;;;;20.33;2.63;;;;;;;5.08;100.00;102508.25;5004695;28;20117;-77
2021/12/20 08:57:50;;;;;;;19.13;2.33;;;;;;;5.13;100.00;102513.53;4991907;28;20105;-77
2021/12/20 09:00:21;;;;;;;19.60;2.60;;;;;;;5.27;100.00;102510.41;4992123;28;20035;-78
2021/12/20 09:02:49;;;;;;;21.88;2.50;;;;;;;5.23;100.00;102514.13;4995155;28;20030;-77
2021/12/20 09:05:15;;;;;;;22.77;2.50;;;;;;;5.20;100.00;102508.78;5021187;28;20757;-77
2021/12/20 09:07:42;;;;;;;22.40;3.83;;;;;;;5.25;100.00;102515.88;5002917;28;20034;-77
2021/12/20 09:10:10;;;;;;;31.23;3.55;;;;;;;5.21;100.00;102521.44;5003673;28;20053;-76
2021/12/20 09:12:35;;;;;;;27.70;3.15;;;;;;;5.38;100.00;102519.13;4997368;28;20482;-77
2021/12/20 09:15:02;;;;;;;19.70;3.05;;;;;;;5.38;100.00;102513.69;4997923;28;20034;-77
2021/12/20 09:17:27;;;;;;;18.35;2.88;;;;;;;5.51;100.00;102520.53;5005679;28;20445;-77
2021/12/20 09:19:53;;;;;;;23.90;2.53;;;;;;;5.49;100.00;102518.78;4997052;28;20451;-77
2021/12/20 09:22:25;;;;;;;24.98;2.83;;;;;;;5.57;100.00;102519.44;5001427;28;20117;-77
2021/12/20 09:24:51;;;;;;;49.75;3.15;;;;;;;5.49;100.00;102527.84;5004671;28;20060;-77
2021/12/20 09:27:16;;;;;;;17.40;2.72;;;;;;;5.61;100.00;102532.00;5004822;28;20113;-77
2021/12/20 09:29:41;;;;;;;22.50;3.40;;;;;;;5.58;100.00;102531.22;5005322;28;20068;-77
2021/12/20 09:32:07;;;;;;;35.55;2.97;;;;;;;5.58;100.00;102539.34;5006291;28;20030;-77
2021/12/20 09:34:32;;;;;;;34.85;2.60;;;;;;;5.47;100.00;102537.84;5006330;28;20053;-77
2021/12/20 09:37:04;;;;;;;15.23;2.15;;;;;;;5.53;100.00;102537.66;4992822;28;20074;-77
2021/12/20 09:39:31;;;;;;;17.65;2.10;;;;;;;5.58;100.00;102540.25;4993726;28;20042;-77
2021/12/20 09:42:00;;;;;;;29.95;2.47;;;;;;;5.60;100.00;102541.06;4982617;28;20031;-77
2021/12/20 09:44:27;;;;;;;29.52;2.70;;;;;;;5.65;100.00;102546.38;4976995;28;20102;-77
2021/12/20 09:46:55;;;;;;;30.33;3.15;;;;;;;5.66;100.00;102551.75;4974305;28;20041;-77
2021/12/20 09:49:21;;;;;;;23.45;3.08;;;;;;;5.75;100.00;102549.69;4977358;28;20054;-77
2021/12/20 09:51:47;;;;;;;19.83;1.85;;;;;;;5.89;100.00;102551.03;4985763;28;20050;-77
2021/12/20 09:54:12;;;;;;;27.55;3.33;;;;;;;5.93;100.00;102554.53;4985472;28;20031;-77
2021/12/20 09:56:39;;;;;;;25.77;3.42;;;;;;;6.00;100.00;102560.69;4978877;28;20031;-76
2021/12/20 09:59:07;;;;;;;28.15;2.53;;;;;;;6.10;100.00;102548.59;4978929;28;20085;-77
2021/12/20 10:01:34;;;;;;;21.30;2.25;;;;;;;6.06;100.00;102560.50;5000250;28;20050;-77
2021/12/20 10:04:00;;;;;;;23.35;2.38;;;;;;;6.02;100.00;102548.84;4986088;28;20041;-77
2021/12/20 10:06:25;;;;;;;23.00;2.50;;;;;;;6.10;100.00;102544.97;4989152;28;20034;-76
2021/12/20 10:08:56;;;;;;;33.45;3.65;;;;;;;6.09;100.00;102549.53;4988146;28;20034;-77
2021/12/20 10:11:29;;;;;;;29.20;3.55;;;;;;;6.02;100.00;102550.69;4980090;28;20064;-78
2021/12/20 10:14:08;;;;;;;23.38;2.72;;;;;;;5.86;100.00;102558.41;4993129;28;20053;-77
2021/12/20 10:16:34;;;;;;;30.88;3.38;;;;;;;5.80;100.00;102559.47;4981520;28;20037;-78
2021/12/20 10:19:00;;;;;;;33.50;2.78;;;;;;;5.79;100.00;102555.00;4977811;28;20050;-78
2021/12/20 10:21:40;;;;;;;29.58;3.60;;;;;;;6.06;100.00;102555.06;4976816;28;20457;-77
2021/12/20 10:24:07;;;;;;;32.15;4.03;;;;;;;6.26;100.00;102548.97;4983948;28;20046;-77
2021/12/20 10:26:45;;;;;;;24.60;2.97;;;;;;;6.48;100.00;102550.94;4993838;28;20070;-77
2021/12/20 10:29:21;;;;;;;38.47;3.85;;;;;;;6.61;100.00;102552.31;4972925;28;20054;-77
2021/12/20 10:31:48;;;;;;;33.10;3.83;;;;;;;6.73;100.00;102545.53;4987943;28;20041;-78
2021/12/20 10:34:14;;;;;;;25.95;3.50;;;;;;;7.00;100.00;102549.09;4990038;28;20041;-77
2021/12/20 10:36:57;;;;;;;38.72;3.55;;;;;;;6.68;100.00;102544.81;4984094;28;20035;-77
2021/12/20 10:39:47;;;;;;;34.47;3.28;;;;;;;6.67;100.00;102540.31;4970980;28;20030;-77
2021/12/20 10:42:24;;;;;;;33.92;4.15;;;;;;;7.04;100.00;102550.75;4990194;28;20046;-77
2021/12/20 10:45:26;;;;;;;34.80;4.47;;;;;;;6.62;100.00;102551.34;4978537;28;20128;-77
2021/12/20 10:47:52;;;;;;;31.98;3.63;;;;;;;6.67;100.00;102559.38;4960314;28;20046;-78
2021/12/20 10:50:23;;;;;;;40.20;5.00;;;;;;;7.17;100.00;102552.06;4944264;28;20053;-78
2021/12/20 10:52:49;;;;;;;35.28;4.30;;;;;;;7.17;100.00;102541.19;4960263;28;20062;-78
2021/12/20 10:55:35;;;;;;;32.50;4.30;;;;;;;7.27;100.00;102543.56;4945246;28;20046;-79
2021/12/20 10:58:33;;;;;;;33.05;4.40;;;;;;;7.22;100.00;102545.59;4979084;28;20043;-79
2021/12/20 11:01:15;;;;;;;41.85;4.53;;;;;;;7.26;100.00;102547.22;4978353;28;20058;-80
2021/12/20 11:03:43;;;;;;;32.05;3.60;;;;;;;6.89;100.00;102537.72;4978491;28;20128;-79
2021/12/20 11:11:29;;;;;;;30.85;5.70;;;;;;;6.72;100.00;102538.31;4995630;28;20113;-80
2021/12/20 11:13:57;;;;;;;47.97;6.45;;;;;;;7.28;100.00;102527.16;4980397;28;20058;-79
2021/12/20 11:16:29;;;;;;;39.88;4.22;;;;;;;6.86;100.00;102541.44;4998005;28;20398;-80
2021/12/20 11:19:14;;;;;;;37.70;4.63;;;;;;;6.99;100.00;102522.81;4987049;28;20048;-80
2021/12/20 11:21:57;;;;;;;28.20;3.28;;;;;;;7.07;100.00;102534.31;4982996;28;20030;-80
2021/12/20 11:24:30;;;;;;;47.38;4.43;;;;;;;6.77;100.00;102531.78;4989222;28;20051;-80
2021/12/20 11:26:56;;;;;;;;;;;;;;;6.60;100.00;102534.19;4985756;28;20497;-80
2021/12/20 11:29:22;;;;;;;33.80;4.45;;;;;;;6.56;100.00;102525.25;4983642;28;19981;-81
2021/12/20 11:31:48;;;;;;;42.45;4.28;;;;;;;6.74;100.00;102526.44;4990397;28;20128;-79
2021/12/20 11:34:14;;;;;;;39.45;5.50;;;;;;;6.68;100.00;102528.50;4994918;28;20026;-79
2021/12/20 11:36:40;;;;;;;42.67;4.15;;;;;;;6.59;100.00;102524.25;4977433;28;20085;-78
2021/12/20 11:39:06;;;;;;;35.88;4.60;;;;;;;6.81;100.00;102532.53;4971886;28;20039;-81
2021/12/20 11:41:33;;;;;;;40.00;5.03;;;;;;;6.58;100.00;102533.38;4993341;28;20133;-79
2021/12/20 11:44:01;;;;;;;38.60;4.35;;;;;;;6.42;100.00;102530.28;4992842;28;20109;-79